Time;durP1;ratioP1;P1;durP2;ratioP2;P2;SDS_P1;SDS_P2;PMS_P1;PMS_P2;Temp;Humidity;BMP_temperature;BMP_pressure;BME280_temperature;BME280_humidity;BME280_pressure;Samples;Min_cycle;Max_cycle;Signal;HPM_P1;HPM_P2
2023/01/31 00:01:06;;;;;;;;;44.25;34.75;;;;;7.28;68.32;-15125.06;4886304;29;45434;-95
2023/01/31 00:03:31;;;;;;;;;40.00;36.00;;;;;7.09;68.65;-15121.34;4882693;29;45415;-95
2023/01/31 00:05:57;;;;;;;;;39.75;35.00;;;;;7.17;68.64;-15122.88;4883392;29;45348;-95
2023/01/31 00:08:22;;;;;;;;;40.50;33.50;;;;;7.25;68.50;-14794.97;4892176;29;46204;-95
2023/01/31 00:10:48;;;;;;;;;34.00;32.75;;;;;7.22;68.30;-14794.38;4886999;29;44831;-96
2023/01/31 00:13:13;;;;;;;;;42.00;36.00;;;;;7.21;68.33;-14794.09;4888633;29;45390;-96
2023/01/31 00:15:38;;;;;;;;;39.00;34.50;;;;;7.05;68.34;-14461.75;4886683;29;46090;-96
2023/01/31 00:18:04;;;;;;;;;39.75;34.50;;;;;7.07;68.52;-14462.03;4888113;29;46038;-96
2023/01/31 00:20:29;;;;;;;;;39.50;33.00;;;;;7.11;68.11;-14462.81;4887331;29;45583;-96
2023/01/31 00:22:54;;;;;;;;;39.75;35.00;;;;;7.02;68.60;-14461.19;4888280;29;45471;-94
2023/01/31 00:25:20;;;;;;;;;41.75;35.00;;;;;6.65;68.43;-14783.47;4887686;29;45352;-96
2023/01/31 00:27:45;;;;;;;;;37.00;34.50;;;;;7.11;68.63;-14792.34;4871934;29;47654;-96
2023/01/31 00:30:11;;;;;;;;;40.50;37.00;;;;;7.11;68.59;-14792.25;4872397;29;45128;-96
2023/01/31 00:32:36;;;;;;;;;36.50;35.25;;;;;6.71;68.80;-14784.75;4872939;29;45488;-96
2023/01/31 00:35:02;;;;;;;;;42.50;34.25;;;;;6.84;68.79;-14787.09;4859161;29;45523;-96
2023/01/31 00:37:27;;;;;;;;;47.75;35.75;;;;;7.09;68.62;-14791.94;4880474;29;48453;-95
2023/01/31 00:39:53;;;;;;;;;44.75;38.00;;;;;7.06;68.64;-14791.28;4854940;29;45295;-96
2023/01/31 00:42:18;;;;;;;;;42.00;36.50;;;;;6.58;68.29;-14453.03;4863475;29;45335;-95
2023/01/31 00:44:43;;;;;;;;;43.75;37.50;;;;;6.81;68.60;-14457.31;4872702;29;45463;-93
2023/01/31 00:47:09;;;;;;;;;44.75;36.75;;;;;6.33;68.45;-14448.41;4849651;29;47875;-94
2023/01/31 00:49:34;;;;;;;;;45.75;38.25;;;;;6.98;68.68;-14460.53;4848926;29;45476;-96
2023/01/31 00:52:00;;;;;;;;;43.50;36.00;;;;;6.31;68.74;-14448.03;4849928;29;45429;-95
2023/01/31 00:54:25;;;;;;;;;37.25;35.75;;;;;6.97;68.75;-14460.25;4851630;29;45738;-95
2023/01/31 00:56:50;;;;;;;;;45.50;37.00;;;;;6.91;68.57;-14459.22;4868790;29;47691;-95
2023/01/31 00:59:16;;;;;;;;;32.50;28.00;;;;;6.74;68.28;-14455.97;4857046;29;45476;-95
2023/01/31 01:01:41;;;;;;;;;41.25;36.00;;;;;6.80;68.36;-14127.81;4871199;29;45378;-95
2023/01/31 01:04:07;;;;;;;;;44.50;35.25;;;;;6.88;68.78;-14129.28;4866869;29;45331;-95
2023/01/31 01:06:33;;;;;;;;;52.25;40.50;;;;;6.87;68.54;-14129.00;4861770;29;48424;-95
2023/01/31 01:08:58;;;;;;;;;40.00;36.50;;;;;6.34;68.36;-14119.63;4880056;29;45379;-95
2023/01/31 01:11:27;;;;;;;;;47.50;38.00;;;;;6.87;68.83;-14458.34;4866572;29;45444;-94
2023/01/31 01:13:54;;;;;;;;;41.25;37.50;;;;;6.52;68.47;-14451.91;4863926;29;45599;-95
2023/01/31 01:16:23;;;;;;;;;53.00;38.75;;;;;6.20;68.79;-14446.03;4858523;29;48236;-95
2023/01/31 01:18:49;;;;;;;;;43.00;37.00;;;;;6.39;69.18;-14778.59;4850906;29;46016;-93
2023/01/31 01:21:20;;;;;;;;;51.25;40.00;;;;;6.90;69.03;-14788.25;4862914;29;45392;-95
2023/01/31 01:23:46;;;;;;;;;48.25;39.50;;;;;6.91;69.04;-14788.53;4855134;29;45448;-96
2023/01/31 01:26:24;;;;;;;;;43.50;35.25;;;;;6.91;69.41;-14788.44;4870906;29;47492;-95
2023/01/31 01:28:50;;;;;;;;;42.25;37.75;;;;;6.91;69.31;-14788.53;4869306;29;46301;-94
2023/01/31 01:31:17;;;;;;;;;39.75;35.75;;;;;6.92;69.26;-14788.75;4864248;29;45322;-93
2023/01/31 01:33:44;;;;;;;;;38.50;29.25;;;;;6.93;69.16;-14788.84;4858840;29;45546;-93
2023/01/31 01:36:12;;;;;;;;;48.00;39.75;;;;;6.93;69.33;-14788.84;4890512;29;45497;-92
2023/01/31 01:38:39;;;;;;;;;46.50;35.25;;;;;6.93;68.75;-14788.94;4882763;29;45646;-94
2023/01/31 01:41:04;;;;;;;;;38.50;35.25;;;;;6.93;68.98;-14788.94;4882494;29;45361;-93
2023/01/31 01:43:54;;;;;;;;;41.00;34.75;;;;;6.91;69.19;-14788.53;4883120;29;45365;-93
2023/01/31 01:46:34;;;;;;;;;44.00;36.50;;;;;6.44;68.87;-14779.56;4875394;29;45489;-93
2023/01/31 01:49:06;;;;;;;;;46.50;35.50;;;;;6.87;69.20;-14787.75;4859577;29;47000;-93
2023/01/31 01:51:33;;;;;;;;;39.25;34.75;;;;;6.74;69.36;-14785.31;4882447;29;45568;-93
2023/01/31 01:54:07;;;;;;;;;42.50;35.50;;;;;6.87;68.71;-14787.75;4877807;29;45419;-94
2023/01/31 01:56:38;;;;;;;;;37.00;34.00;;;;;6.86;69.04;-14787.47;4890973;29;45432;-94
2023/01/31 01:59:11;;;;;;;;;7.50;4.00;;;;;6.75;68.81;-14785.44;4885740;29;45485;-94
2023/01/31 02:01:37;;;;;;;;;43.25;35.75;;;;;6.86;69.24;-14787.47;4885971;29;45339;-95
2023/01/31 02:04:08;;;;;;;;;45.00;37.50;;;;;6.81;69.10;-14786.50;4885985;29;45464;-95
2023/01/31 02:06:33;;;;;;;;;39.25;34.50;;;;;6.79;68.88;-14456.94;4884777;29;46415;-91
2023/01/31 02:08:59;;;;;;;;;40.50;33.25;;;;;5.55;68.98;-14433.97;4876886;29;45441;-91
2023/01/31 02:11:28;;;;;;;;;33.75;29.25;;;;;6.75;69.03;-14456.28;4864594;29;45413;-91
2023/01/31 02:14:00;;;;;;;;;35.00;29.00;;;;;6.73;68.65;-14455.88;4880232;29;45469;-91
2023/01/31 02:16:26;;;;;;;;;40.75;34.25;;;;;6.74;69.06;-14455.97;4880390;29;47217;-91
2023/01/31 02:18:52;;;;;;;;;38.75;34.00;;;;;6.53;68.72;-14452.09;4880300;29;45420;-91
2023/01/31 02:21:36;;;;;;;;;32.25;29.50;;;;;6.67;69.05;-14454.75;4881512;29;45862;-91
2023/01/31 02:24:47;;;;;;;;;34.25;30.00;;;;;6.64;68.67;-14124.97;4880879;29;45518;-91
2023/01/31 02:27:28;;;;;;;;;30.25;29.25;;;;;6.45;69.27;-14450.59;4855950;29;47266;-93
2023/01/31 02:30:36;;;;;;;;;34.25;28.75;;;;;6.62;69.18;-14124.50;4890608;29;45483;-96
2023/01/31 02:33:27;;;;;;;;;34.00;31.00;;;;;6.60;68.71;-14124.13;4897965;29;44667;-96
2023/01/31 02:36:01;;;;;;;;;34.75;31.75;;;;;6.61;68.92;-14124.31;4880418;29;44744;-96
2023/01/31 02:38:50;;;;;;;;;29.25;25.75;;;;;4.61;68.61;-13431.97;5053389;23;46376;-96
2023/01/31 02:42:04;;;;;;;;;29.25;26.25;;;;;5.88;68.81;-14111.22;4923903;29;44742;-96
2023/01/31 02:52:55;;;;;;;;;28.25;27.00;;;;;6.51;68.90;-14122.66;5167816;23;46038;-91
2023/01/31 02:58:14;;;;;;;;;32.00;28.25;;;;;5.87;68.34;-14111.03;4880324;29;45330;-89
2023/01/31 03:00:44;;;;;;;;;33.75;26.00;;;;;5.97;68.24;-13783.91;4860060;29;46700;-90
2023/01/31 03:03:21;;;;;;;;;31.75;27.25;;;;;5.70;68.37;-13450.56;4872195;29;45381;-90
2023/01/31 03:06:11;;;;;;;;;29.50;26.75;;;;;6.39;68.31;-13462.09;4889007;29;45491;-90
2023/01/31 03:11:08;;;;;;;;;33.25;27.00;;;;;3.56;68.21;-13086.44;4886989;29;45343;-96
2023/01/31 03:13:38;;;;;;;;;30.25;25.50;;;;;6.34;69.00;-13461.31;4945080;23;44797;-96
2023/01/31 03:19:24;;;;;;;;;27.75;26.50;;;;;6.29;68.51;-13460.44;4930134;28;47142;-95
2023/01/31 03:21:59;;;;;;;;;29.75;25.50;;;;;6.29;68.68;-13460.53;4913857;29;45282;-95
2023/01/31 03:24:27;;;;;;;;;33.25;27.75;;;;;5.95;68.40;-13454.63;4897828;29;45306;-96
2023/01/31 03:26:56;;;;;;;;;34.50;31.00;;;;;6.28;69.15;-13460.28;4921901;29;44847;-95
2023/01/31 03:29:24;;;;;;;;;36.00;30.75;;;;;6.11;68.58;-13457.41;4927229;29;44817;-96
2023/01/31 03:31:59;;;;;;;;;15.25;13.50;;;;;6.27;69.12;-13789.28;4924612;29;45109;-95
2023/01/31 03:34:26;;;;;;;;;28.75;26.25;;;;;4.73;69.19;-13762.31;4950618;23;44792;-95
2023/01/31 03:36:55;;;;;;;;;30.75;27.25;;;;;4.47;69.07;-13429.59;4945840;23;44932;-95
2023/01/31 03:39:30;;;;;;;;;33.75;28.25;;;;;6.29;68.97;-13789.53;5046710;23;45841;-96
2023/01/31 03:42:06;;;;;;;;;29.00;26.00;;;;;2.68;68.49;-13399.19;4886316;29;45638;-96
2023/01/31 03:44:52;;;;;;;;;32.75;28.75;;;;;4.03;69.17;-13750.03;4882391;29;45273;-96
2023/01/31 03:47:24;;;;;;;;;27.75;24.00;;;;;5.29;69.59;-13772.16;4881971;29;45379;-96
2023/01/31 03:49:53;;;;;;;;;23.50;22.50;;;;;6.26;69.70;-14118.16;4881029;29;45430;-96
2023/01/31 03:52:25;;;;;;;;;29.75;28.50;;;;;3.29;69.26;-13737.06;4883739;29;46547;-96
2023/01/31 03:55:02;;;;;;;;;29.00;27.25;;;;;4.46;69.67;-14085.66;4868203;29;45342;-96
2023/01/31 03:57:35;;;;;;;;;28.00;25.25;;;;;3.27;69.43;-13736.72;4881125;29;45373;-96
2023/01/31 04:00:04;;;;;;;;;27.00;23.50;;;;;4.10;69.69;-14079.19;4883776;29;45618;-96
2023/01/31 04:02:35;;;;;;;;;31.00;28.00;;;;;5.23;69.78;-14099.59;4844299;29;47160;-96
2023/01/31 04:05:10;;;;;;;;;26.00;24.75;;;;;3.79;69.45;-14073.53;4879444;29;45365;-96
2023/01/31 04:07:36;;;;;;;;;25.25;24.75;;;;;5.02;69.99;-14424.19;4876892;29;45066;-96
2023/01/31 04:28:08;;;;;;;;;47.50;40.75;;;;;5.81;70.03;-14438.81;5395239;23;46025;-90
2023/01/31 04:30:33;;;;;;;;;43.00;38.00;;;;;6.20;69.72;-14445.94;4901781;28;45445;-90
2023/01/31 04:32:58;;;;;;;;;38.00;31.75;;;;;6.09;70.06;-14444.03;4902766;28;45418;-92
2023/01/31 04:35:24;;;;;;;;;32.75;29.25;;;;;5.63;69.70;-14764.06;4906287;29;45468;-96
2023/01/31 04:37:49;;;;;;;;;31.75;30.00;;;;;6.06;69.79;-14772.34;4913537;29;45429;-91
2023/01/31 04:40:14;;;;;;;;;34.50;29.50;;;;;6.15;70.14;-15102.81;4898168;28;45445;-92
2023/01/31 04:42:40;;;;;;;;;28.75;25.75;;;;;5.89;70.26;-15097.78;4899532;28;48071;-92
2023/01/31 04:45:05;;;;;;;;;28.75;24.50;;;;;5.47;70.26;-15089.66;4892520;28;45493;-91
2023/01/31 04:50:07;;;;;;;;;21.50;18.00;;;;;4.20;70.05;-15064.63;5125982;23;44896;-95
2023/01/31 04:52:32;;;;;;;;;17.00;16.00;;;;;5.97;70.41;-15756.94;4886714;29;45597;-95
2023/01/31 04:54:58;;;;;;;;;16.25;14.25;;;;;5.43;71.00;-16074.16;4874510;29;44718;-96
2023/01/31 04:57:24;;;;;;;;;20.50;16.25;;;;;4.10;70.85;-16046.03;4879534;29;44833;-95
2023/01/31 04:59:51;;;;;;;;;18.50;17.00;;;;;5.64;70.97;-16407.13;4889754;29;44734;-96
2023/01/31 05:02:17;;;;;;;;;19.75;16.50;;;;;3.52;71.35;-16688.50;4905371;29;45622;-95
2023/01/31 05:04:43;;;;;;;;;16.00;15.25;;;;;3.08;71.39;-16678.69;4887566;29;44729;-96
2023/01/31 05:07:09;;;;;;;;;14.75;12.75;;;;;3.59;71.62;-16690.00;4881063;29;44729;-96
2023/01/31 05:09:37;;;;;;;;;18.67;13.33;;;;;3.87;71.36;-17023.81;4892989;29;44839;-95
2023/01/31 05:12:03;;;;;;;;;9.33;9.33;;;;;3.59;71.94;-17344.72;4885799;29;45745;-92
2023/01/31 05:14:29;;;;;;;;;14.33;10.00;;;;;4.41;71.58;-17363.97;4865016;29;46043;-91
2023/01/31 05:16:54;;;;;;;;;12.67;10.00;;;;;5.41;71.85;-17715.44;4873462;29;45513;-90
2023/01/31 05:19:19;;;;;;;;;11.00;9.00;;;;;4.54;72.17;-17694.69;4870270;29;45396;-90
2023/01/31 05:21:53;;;;;;;;;15.67;11.00;;;;;5.97;71.94;-18057.31;4846820;29;47386;-88
2023/01/31 05:24:22;;;;;;;;;17.33;11.33;;;;;6.48;72.04;-18069.91;4860286;29;45482;-90
2023/01/31 05:26:49;;;;;;;;;12.00;10.67;;;;;6.50;72.45;-18399.06;4862659;29;45697;-91
2023/01/31 05:29:14;;;;;;;;;11.00;9.33;;;;;6.27;72.33;-18393.47;4862155;29;45578;-91
2023/01/31 05:31:40;;;;;;;;;13.33;10.67;;;;;6.55;71.83;-18400.34;4862919;29;45417;-91
2023/01/31 05:34:06;;;;;;;;;10.33;9.67;;;;;6.53;72.10;-18399.84;4873628;29;45392;-95
2023/01/31 05:36:31;;;;;;;;;12.00;10.00;;;;;6.62;72.28;-18730.97;4862313;29;45521;-92
2023/01/31 05:38:56;;;;;;;;;11.00;9.00;;;;;6.65;72.58;-18731.63;4866906;29;45256;-93
2023/01/31 05:41:22;;;;;;;;;10.67;10.67;;;;;6.68;72.46;-18732.53;4880141;29;45604;-96
2023/01/31 05:43:47;;;;;;;;;9.67;9.67;;;;;6.72;72.68;-18733.44;4882231;29;44821;-96
2023/01/31 05:46:12;;;;;;;;;14.67;10.00;;;;;6.77;72.14;-19063.63;4880278;29;45351;-96
2023/01/31 05:48:38;;;;;;;;;11.67;9.33;;;;;6.81;72.45;-19064.69;4886694;29;44787;-96
2023/01/31 05:51:04;;;;;;;;;8.67;8.33;;;;;6.84;72.28;-19065.50;4888559;29;46409;-96
2023/01/31 05:53:29;;;;;;;;;13.00;11.33;;;;;6.80;72.10;-19064.31;4890454;29;44728;-96
2023/01/31 05:55:54;;;;;;;;;11.33;7.00;;;;;6.93;72.16;-19067.75;4881090;29;45436;-92
2023/01/31 05:58:20;;;;;;;;;8.33;8.33;;;;;6.36;72.25;-19052.88;4861668;29;45487;-91
2023/01/31 06:00:45;;;;;;;;;9.67;8.67;;;;;6.66;71.96;-19060.72;5641729;23;46318;-92
2023/01/31 06:03:11;;;;;;;;;12.00;10.00;;;;;4.97;71.83;-19017.00;4861576;29;45418;-93
2023/01/31 06:05:36;;;;;;;;;11.33;10.00;;;;;5.15;72.40;-19021.66;4863990;29;45480;-92
2023/01/31 06:08:02;;;;;;;;;13.33;11.33;;;;;6.78;72.24;-19063.78;4862247;29;45621;-96
2023/01/31 06:10:27;;;;;;;;;10.00;10.00;;;;;4.75;71.90;-19011.28;4869380;29;48006;-95
2023/01/31 06:12:52;;;;;;;;;9.67;6.00;;;;;5.77;72.03;-19037.59;4867348;29;45341;-95
2023/01/31 06:15:18;;;;;;;;;10.00;7.33;;;;;4.87;72.04;-19014.34;4859592;29;45541;-94
2023/01/31 06:17:43;;;;;;;;;10.33;6.00;;;;;5.81;71.52;-19038.81;4867638;29;45765;-95
2023/01/31 06:20:09;;;;;;;;;6.00;6.00;;;;;6.88;71.92;-19066.56;4851138;29;48128;-95
2023/01/31 06:22:35;;;;;;;;;9.67;9.00;;;;;5.81;72.03;-19038.66;4866496;29;45464;-95
2023/01/31 06:25:00;;;;;;;;;10.67;8.33;;;;;5.34;71.55;-19026.56;4855069;29;45565;-95
2023/01/31 06:27:25;;;;;;;;;15.67;10.33;;;;;6.12;71.62;-19046.78;4852908;29;45340;-94
2023/01/31 06:29:51;;;;;;;;;18.67;13.33;;;;;5.33;71.52;-19026.19;4846340;29;47122;-95
2023/01/31 06:32:16;;;;;;;;;23.33;16.33;;;;;5.53;71.84;-19031.50;4865150;29;45445;-94
2023/01/31 06:34:41;;;;;;;;;13.67;12.67;;;;;6.50;71.83;-19056.72;4850560;29;45354;-94
2023/01/31 06:37:09;;;;;;;;;13.33;11.33;;;;;4.59;71.48;-19007.03;5250728;23;45978;-95
2023/01/31 06:39:35;;;;;;;;;10.67;10.33;;;;;5.17;71.08;-19022.19;4955484;23;45913;-89
2023/01/31 06:42:02;;;;;;;;;15.00;11.00;;;;;4.55;71.49;-19006.09;4995152;23;47155;-90
2023/01/31 07:10:13;;;;;;;;;6.67;5.00;;;;;5.74;71.00;-18708.47;4883147;29;46295;-92
2023/01/31 07:12:39;;;;;;;;;8.00;6.33;;;;;6.13;70.95;-19047.19;4884214;29;45771;-91
2023/01/31 07:15:05;;;;;;;;;8.67;6.67;;;;;6.29;70.47;-18722.66;4883657;29;45383;-92
2023/01/31 07:17:32;;;;;;;;;13.00;8.33;;;;;7.80;70.88;-18761.00;4883989;29;45725;-92
2023/01/31 07:19:57;;;;;;;;;3.00;3.00;;;;;7.45;70.73;-18752.03;4865296;29;47558;-90
2023/01/31 07:22:23;;;;;;;;;8.67;5.33;;;;;5.74;70.19;-18708.59;4861797;29;45469;-91
2023/01/31 07:24:49;;;;;;;;;7.00;6.00;;;;;7.60;70.37;-18755.94;4882627;29;45727;-91
2023/01/31 07:27:14;;;;;;;;;4.00;4.00;;;;;7.88;70.54;-18762.81;4864582;29;45439;-91
2023/01/31 07:33:12;;;;;;;;;7.00;7.00;;;;;6.26;70.20;-18721.88;4798988;29;46043;-93
2023/01/31 07:36:20;;;;;;;;;;;;;;;;;;;;;
2023/01/31 07:39:01;;;;;;;;;2.00;2.00;;;;;7.35;70.30;-18749.56;4775599;29;62273;-95
2023/01/31 07:41:56;;;;;;;;;6.00;6.00;;;;;7.98;70.03;-18765.41;4798773;29;47247;-94
2023/01/31 07:44:22;;;;;;;;;11.00;6.33;;;;;6.18;70.00;-18391.06;4802450;29;45545;-95
2023/01/31 07:50:44;;;;;;;;;10.33;7.00;;;;;6.33;70.00;-18394.88;4783723;29;45958;-94
2023/01/31 09:21:54;;;;;;;;;5.67;5.67;;;;;8.71;67.35;-18123.91;4983020;23;45691;-86
2023/01/31 09:24:19;;;;;;;;;7.00;5.67;;;;;9.35;66.97;-18139.59;4896769;28;46135;-85
2023/01/31 09:26:44;;;;;;;;;11.67;7.67;;;;;9.16;67.01;-18134.97;4896793;29;45549;-84
2023/01/31 09:29:10;;;;;;;;;5.67;3.67;;;;;9.39;67.02;-18140.44;4897938;29;45460;-85
2023/01/31 09:31:35;;;;;;;;;16.67;14.67;;;;;9.22;66.74;-18136.47;4877827;29;45683;-86
2023/01/31 09:34:00;;;;;;;;;28.00;21.67;;;;;8.85;66.59;-18127.41;4894007;29;45512;-85
2023/01/31 09:36:27;;;;;;;;;11.00;9.00;;;;;9.13;66.84;-18134.25;4880898;29;45777;-86
2023/01/31 09:38:55;;;;;;;;;15.00;10.33;;;;;9.48;66.16;-17812.41;4897861;28;45821;-85
2023/01/31 09:41:43;;;;;;;;;8.00;8.00;;;;;9.49;66.52;-17812.63;4882688;28;45651;-85
2023/01/31 09:44:24;;;;;;;;;6.67;6.00;;;;;9.23;66.46;-17806.31;4898929;28;46217;-85
2023/01/31 09:46:56;;;;;;;;;8.33;8.00;;;;;9.52;65.84;-17813.25;4881650;29;45508;-86
2023/01/31 09:49:41;;;;;;;;;9.67;7.00;;;;;9.56;66.38;-17814.22;4899241;29;45439;-85
2023/01/31 09:52:09;;;;;;;;;8.00;7.00;;;;;9.44;66.35;-17811.41;4898546;28;45455;-83
2023/01/31 09:54:38;;;;;;;;;10.67;9.00;;;;;9.67;65.59;-17816.78;4898687;29;45579;-84
2023/01/31 09:57:04;;;;;;;;;7.67;6.67;;;;;9.62;66.07;-17485.03;4898262;29;45633;-83
2023/01/31 09:59:55;;;;;;;;;9.67;7.67;;;;;9.61;65.81;-17484.81;4880289;29;45468;-84
2023/01/31 10:02:26;;;;;;;;;11.00;7.00;;;;;9.66;65.32;-17486.09;4898524;28;45517;-84
2023/01/31 10:05:04;;;;;;;;;7.00;5.67;;;;;9.49;65.08;-17482.19;4898125;28;46260;-83
2023/01/31 10:07:35;;;;;;;;;7.00;6.67;;;;;9.80;65.27;-17489.31;4901781;28;45448;-84
2023/01/31 10:10:45;;;;;;;;;6.00;6.00;;;;;9.84;65.44;-17490.16;4898512;29;45459;-84
2023/01/31 10:13:20;;;;;;;;;6.33;5.33;;;;;9.61;64.99;-17154.38;4888151;29;45504;-83
2023/01/31 10:15:55;;;;;;;;;9.33;9.33;;;;;9.85;64.73;-17159.81;4898021;29;46388;-82
2023/01/31 10:18:31;;;;;;;;;9.67;8.33;;;;;9.67;64.83;-17155.78;4897774;29;45469;-83
2023/01/31 10:21:00;;;;;;;;;7.67;7.00;;;;;9.96;64.64;-17162.16;4881060;29;45558;-83
2023/01/31 10:23:50;;;;;;;;;10.33;6.00;;;;;10.02;65.06;-17163.53;4879408;29;45501;-83
2023/01/31 10:26:32;;;;;;;;;8.67;8.00;;;;;10.10;64.45;-17165.50;4858237;29;47413;-82
2023/01/31 10:29:14;;;;;;;;;14.33;12.00;;;;;10.02;64.42;-17494.41;4876396;29;45635;-84
2023/01/31 10:32:23;;;;;;;;;10.67;8.00;;;;;10.33;64.23;-17170.63;4861107;29;45813;-83
2023/01/31 10:34:55;;;;;;;;;11.67;9.00;;;;;10.41;63.89;-17172.34;4857613;29;45493;-83
2023/01/31 10:37:38;;;;;;;;;8.67;8.67;;;;;10.41;64.30;-17503.44;4868204;29;46121;-84
2023/01/31 10:40:14;;;;;;;;;9.33;8.00;;;;;10.57;63.57;-17176.06;4873587;29;45443;-85
2023/01/31 10:42:44;;;;;;;;;11.00;9.00;;;;;10.59;63.47;-17176.41;4876422;29;45908;-83
2023/01/31 10:45:20;;;;;;;;;6.00;6.00;;;;;10.61;63.19;-17176.88;4876349;29;45526;-83
2023/01/31 10:47:51;;;;;;;;;9.67;8.67;;;;;10.66;63.10;-17178.16;4860793;29;48712;-85
2023/01/31 10:50:17;;;;;;;;;11.00;8.67;;;;;10.69;62.80;-16847.59;4877461;29;45463;-84
2023/01/31 10:53:04;;;;;;;;;9.33;8.67;;;;;10.72;62.92;-16848.38;4875617;29;45428;-83
2023/01/31 10:55:37;;;;;;;;;13.00;12.67;;;;;10.71;62.48;-16516.88;4877314;29;45488;-84
2023/01/31 10:58:03;;;;;;;;;11.00;10.00;;;;;10.69;62.45;-16847.69;4876178;29;45795;-84
2023/01/31 11:00:32;;;;;;;;;8.67;6.33;;;;;10.58;62.41;-16514.09;4877665;29;45516;-84
2023/01/31 11:02:58;;;;;;;;;7.00;7.00;;;;;10.75;62.48;-16517.84;4862867;29;45513;-85
2023/01/31 11:05:27;;;;;;;;;8.33;6.33;;;;;10.84;62.79;-16851.00;4880147;29;45327;-83
2023/01/31 11:07:56;;;;;;;;;7.00;5.00;;;;;10.89;62.67;-16852.13;4881576;29;45493;-84
2023/01/31 11:10:25;;;;;;;;;9.00;8.00;;;;;10.75;62.34;-16848.94;4872146;29;45506;-84
2023/01/31 11:13:04;;;;;;;;;9.33;6.33;;;;;10.91;62.02;-16521.28;4855434;29;45828;-84
2023/01/31 11:15:39;;;;;;;;;11.33;10.33;;;;;10.94;62.39;-16521.94;4893783;29;45711;-85
2023/01/31 11:18:04;;;;;;;;;9.00;6.33;;;;;10.51;61.93;-16512.66;4876298;29;46115;-84
2023/01/31 11:20:36;;;;;;;;;13.00;11.00;;;;;10.90;62.18;-16520.94;4877929;29;45444;-83
2023/01/31 11:23:04;;;;;;;;;8.33;6.00;;;;;10.65;61.91;-16515.66;4891518;28;45596;-85
2023/01/31 11:25:32;;;;;;;;;7.33;6.00;;;;;10.96;61.85;-16522.38;4889534;28;46044;-84
2023/01/31 11:28:01;;;;;;;;;9.00;7.33;;;;;11.12;61.75;-16525.69;4889972;29;46116;-88
2023/01/31 11:30:39;;;;;;;;;5.33;5.00;;;;;10.83;61.58;-16188.25;4891047;28;45797;-83
2023/01/31 11:33:05;;;;;;;;;7.67;6.00;;;;;11.04;61.71;-16192.56;4897017;28;45571;-82
2023/01/31 11:35:32;;;;;;;;;8.33;5.67;;;;;11.18;61.65;-16195.66;4889349;29;45572;-83
2023/01/31 11:38:19;;;;;;;;;8.67;7.00;;;;;11.24;61.73;-16528.34;4891715;28;46462;-82
2023/01/31 11:40:45;;;;;;;;;6.00;6.00;;;;;11.30;61.41;-16198.03;4891849;28;45497;-82
2023/01/31 11:43:30;;;;;;;;;8.00;6.00;;;;;11.31;61.42;-16198.38;4887429;28;45571;-82
2023/01/31 11:46:01;;;;;;;;;11.33;8.00;;;;;11.18;61.43;-16527.13;4893337;28;45513;-81
2023/01/31 11:48:41;;;;;;;;;8.33;6.00;;;;;11.24;61.12;-16196.75;4893955;28;46353;-82
2023/01/31 11:51:09;;;;;;;;;5.00;4.00;;;;;11.49;61.04;-16533.63;4891272;28;45855;-82
2023/01/31 12:01:26;;;;;;;;;5.00;5.00;;;;;11.19;60.16;-15532.75;5370718;23;46308;-90
2023/01/31 12:03:57;;;;;;;;;5.67;3.33;;;;;11.04;60.41;-15861.13;4841522;29;45796;-87
2023/01/31 12:06:28;;;;;;;;;7.33;7.33;;;;;11.53;60.71;-15539.59;4866648;23;46775;-82
2023/01/31 12:08:56;;;;;;;;;14.67;9.67;;;;;11.43;60.60;-15537.47;4859945;29;45533;-82
2023/01/31 12:11:32;;;;;;;;;20.00;14.00;;;;;11.34;60.77;-15867.44;4858725;29;45492;-82
2023/01/31 12:14:13;;;;;;;;;7.67;7.33;;;;;11.33;61.12;-15867.13;4855278;29;45586;-82
2023/01/31 12:16:38;;;;;;;;;10.00;9.00;;;;;11.55;60.81;-15871.72;4859614;29;45489;-81
2023/01/31 12:19:13;;;;;;;;;6.67;6.67;;;;;11.58;61.10;-15872.25;4860748;29;45580;-81
2023/01/31 12:22:13;;;;;;;;;10.00;6.67;;;;;11.65;61.10;-15873.63;4860225;29;45459;-82
2023/01/31 12:24:49;;;;;;;;;7.00;7.00;;;;;11.70;61.02;-15874.66;4794901;29;45536;-81
2023/01/31 12:27:33;;;;;;;;;7.33;4.67;;;;;11.73;60.90;-15875.28;4770202;29;45524;-82
2023/01/31 12:30:17;;;;;;;;;8.67;7.00;;;;;11.77;61.12;-15876.13;4776714;29;45684;-82
2023/01/31 12:32:54;;;;;;;;;4.33;4.00;;;;;11.80;61.10;-15876.75;4784940;29;45458;-82
2023/01/31 12:35:29;;;;;;;;;6.00;6.00;;;;;11.86;60.98;-16209.75;4775963;29;45860;-82
2023/01/31 12:38:06;;;;;;;;;8.00;5.33;;;;;11.94;61.33;-16211.59;4786873;29;45624;-82
2023/01/31 12:41:03;;;;;;;;;3.00;3.00;;;;;12.03;60.59;-16213.53;4787470;29;45582;-82
2023/01/31 12:43:41;;;;;;;;;5.00;5.00;;;;;12.07;60.33;-16214.19;4784413;29;45486;-82
2023/01/31 12:46:37;;;;;;;;;5.00;3.00;;;;;12.13;60.19;-16215.56;4793853;29;45644;-82
2023/01/31 12:49:28;;;;;;;;;6.00;4.00;;;;;12.24;60.37;-16217.94;4789080;29;45518;-82
2023/01/31 12:52:10;;;;;;;;;2.67;2.67;;;;;12.10;59.76;-16214.81;4782631;29;46295;-81
2023/01/31 12:55:15;;;;;;;;;6.33;6.00;;;;;12.35;60.19;-16552.28;4793395;29;45493;-82
2023/01/31 12:57:53;;;;;;;;;3.00;3.00;;;;;12.55;59.77;-16224.28;4794043;29;45505;-81
2023/01/31 13:00:29;;;;;;;;;5.00;3.67;;;;;12.61;59.59;-16225.66;4774456;29;45588;-82
2023/01/31 13:03:23;;;;;;;;;5.33;4.00;;;;;12.68;59.46;-16227.06;4858173;29;47764;-82
2023/01/31 13:06:14;;;;;;;;;5.33;4.33;;;;;12.67;59.24;-16226.97;4857881;29;45547;-83
2023/01/31 13:08:46;;;;;;;;;4.67;4.00;;;;;12.63;58.90;-15893.75;4859907;29;45629;-82
2023/01/31 13:11:19;;;;;;;;;3.33;3.33;;;;;12.56;59.21;-15892.28;4857496;29;45496;-82
2023/01/31 13:13:49;;;;;;;;;3.00;3.00;;;;;12.75;59.19;-16228.56;4857482;29;46290;-81
2023/01/31 13:16:24;;;;;;;;;5.00;2.00;;;;;12.94;58.99;-16232.53;4854195;29;45548;-82
2023/01/31 13:18:53;;;;;;;;;4.33;3.00;;;;;13.04;58.40;-16234.56;4859829;29;45883;-82
2023/01/31 13:21:26;;;;;;;;;2.33;2.33;;;;;13.45;57.96;-16243.16;4860726;29;45448;-81
2023/01/31 13:23:58;;;;;;;;;2.67;2.33;;;;;13.63;57.78;-16579.69;4855344;29;46401;-82
2023/01/31 13:26:30;;;;;;;;;6.33;3.33;;;;;13.76;57.26;-16249.59;4859792;29;45575;-82
2023/01/31 13:29:02;;;;;;;;;2.00;1.33;;;;;13.94;57.31;-16253.56;4860000;29;45398;-81
2023/01/31 13:31:40;;;;;;;;;3.00;3.00;;;;;13.88;56.54;-15919.25;4857231;29;45425;-82
2023/01/31 13:34:17;;;;;;;;;4.33;3.00;;;;;13.85;56.54;-15585.69;4852082;29;46448;-82
2023/01/31 13:36:47;;;;;;;;;2.67;2.67;;;;;13.98;56.61;-15921.22;4857635;29;46056;-82
2023/01/31 13:39:23;;;;;;;;;4.00;4.00;;;;;14.22;56.24;-15926.25;4858320;29;45559;-81
2023/01/31 13:41:49;;;;;;;;;1.67;1.67;;;;;14.33;56.10;-15928.44;4859696;29;46621;-82
2023/01/31 13:44:16;;;;;;;;;3.67;3.67;;;;;14.61;55.97;-15934.19;4854946;29;46243;-82
2023/01/31 13:46:51;;;;;;;;;1.33;1.00;;;;;14.64;55.30;-15601.34;4859789;29;45469;-83
2023/01/31 13:49:36;;;;;;;;;5.33;3.67;;;;;14.71;54.87;-15269.44;4852465;29;45473;-83
2023/01/31 13:52:16;;;;;;;;;2.67;1.67;;;;;14.76;55.05;-14936.88;4849483;29;45367;-83
2023/01/31 13:54:47;;;;;;;;;2.00;2.00;;;;;14.67;54.53;-14601.69;4856246;29;46419;-82
2023/01/31 13:57:22;;;;;;;;;3.00;2.33;;;;;14.59;55.25;-14600.19;4857946;29;45454;-82
2023/01/31 13:59:53;;;;;;;;;4.00;4.00;;;;;14.38;54.90;-14596.34;4859566;29;45934;-82
2023/01/31 14:02:19;;;;;;;;;2.33;2.33;;;;;14.66;55.66;-14601.50;4862369;29;45548;-82
2023/01/31 14:04:46;;;;;;;;;2.00;2.00;;;;;14.73;55.53;-14936.28;4860100;29;45545;-82
2023/01/31 14:07:11;;;;;;;;;2.67;1.67;;;;;14.82;55.30;-14938.03;4865366;29;45500;-82
2023/01/31 14:09:38;;;;;;;;;5.33;3.00;;;;;14.89;54.82;-14605.69;4860227;29;45767;-82
2023/01/31 14:12:16;;;;;;;;;4.00;3.00;;;;;14.80;55.08;-14270.47;4862491;29;45597;-83
2023/01/31 14:14:51;;;;;;;;;5.00;1.67;;;;;14.61;54.84;-13933.63;4870187;29;45915;-82
2023/01/31 14:17:20;;;;;;;;;2.00;2.00;;;;;14.49;55.47;-13931.59;4863007;29;45410;-82
2023/01/31 14:19:45;;;;;;;;;2.00;2.00;;;;;14.38;55.41;-13596.28;4861350;29;45859;-84
2023/01/31 14:22:18;;;;;;;;;4.00;4.00;;;;;14.12;55.50;-13592.00;4862560;29;45788;-83
2023/01/31 14:24:52;;;;;;;;;2.67;2.67;;;;;14.17;56.19;-13259.47;4868949;29;45594;-83
2023/01/31 14:27:21;;;;;;;;;5.33;4.00;;;;;13.73;55.96;-13252.53;4870691;29;45488;-84
2023/01/31 14:30:04;;;;;;;;;3.33;2.33;;;;;13.87;56.42;-12921.50;4860400;29;45533;-84
2023/01/31 14:32:46;;;;;;;;;2.67;1.67;;;;;13.49;56.86;-12915.66;4859734;29;45712;-83